Terminal Aerodrome Forecast
Issued by NWS

Home | Current Version | Previous Version | Text Only | Print | Product List | Glossary Off
Versions: 1 2 3 4 5 6 7 8 9 10 11 12 13 14 15

719
FTUS43 KOAX 210529
TAFCDR
TAF
KCDR 210529Z 2106/2206 08008KT P6SM SCT150
     FM211000 01004KT P6SM SCT025
     FM211200 VRB05KT P6SM SCT050 BKN100
     FM211600 01017KT P6SM SCT100=

USA.gov is the U.S. government's official web portal to all federal, state and local government web resources and services.